createdAt,value
2023-01-12T00:02:16.561Z,10.40
2023-01-12T00:04:44.687Z,10.50
2023-01-12T00:07:14.252Z,10.50
2023-01-12T00:09:42.440Z,10.50
2023-01-12T00:12:12.356Z,10.50
2023-01-12T00:14:40.979Z,10.60
2023-01-12T00:17:11.862Z,10.60
2023-01-12T00:19:40.139Z,10.60
2023-01-12T00:22:12.094Z,10.70
2023-01-12T00:24:41.980Z,10.70
2023-01-12T00:27:12.474Z,10.70
2023-01-12T00:29:40.571Z,10.70
2023-01-12T00:32:14.317Z,10.70
2023-01-12T00:34:42.845Z,10.70
2023-01-12T00:37:11.047Z,10.70
2023-01-12T00:39:43.044Z,10.60
2023-01-12T00:42:31.625Z,10.60
2023-01-12T00:45:17.563Z,10.60
2023-01-12T00:47:46.931Z,10.60
2023-01-12T00:50:16.534Z,10.60
2023-01-12T00:52:46.000Z,10.60
2023-01-12T00:55:14.054Z,10.60
2023-01-12T00:57:42.221Z,10.70
2023-01-12T01:00:11.633Z,10.70
2023-01-12T01:02:39.786Z,10.60
2023-01-12T01:05:09.995Z,10.70
2023-01-12T01:07:38.462Z,10.60
2023-01-12T01:10:07.247Z,10.60
2023-01-12T01:12:35.270Z,10.60
2023-01-12T01:15:03.630Z,10.70
2023-01-12T01:17:31.666Z,10.70
2023-01-12T01:19:59.744Z,10.80
2023-01-12T01:22:29.361Z,10.70
2023-01-12T01:24:57.345Z,10.80
2023-01-12T01:27:25.421Z,10.80
2023-01-12T01:29:53.421Z,10.80
2023-01-12T01:32:21.417Z,10.80
2023-01-12T01:34:49.415Z,10.80
2023-01-12T01:37:18.395Z,10.80
2023-01-12T01:39:47.677Z,10.80
2023-01-12T01:42:27.840Z,10.80
2023-01-12T01:44:58.164Z,10.80
2023-01-12T01:47:35.928Z,10.80
2023-01-12T01:50:11.749Z,10.80
2023-01-12T01:52:43.423Z,10.80
2023-01-12T01:55:18.102Z,10.80
2023-01-12T01:57:49.700Z,10.80
2023-01-12T02:00:18.768Z,10.80
2023-01-12T02:02:48.782Z,10.80
2023-01-12T02:05:20.226Z,10.80
2023-01-12T02:07:49.109Z,10.70
2023-01-12T02:10:19.404Z,10.70
2023-01-12T02:13:05.077Z,10.70
2023-01-12T02:15:58.423Z,10.70
2023-01-12T02:18:32.753Z,10.70
2023-01-12T02:21:12.321Z,10.70
2023-01-12T02:24:25.216Z,10.70
2023-01-12T02:27:26.280Z,10.60
2023-01-12T02:30:23.407Z,10.70
2023-01-12T02:33:01.011Z,10.70
2023-01-12T02:35:35.687Z,10.70
2023-01-12T02:38:13.295Z,10.80
2023-01-12T02:40:48.937Z,10.70
2023-01-12T02:43:22.654Z,10.80
2023-01-12T02:45:55.660Z,10.80
2023-01-12T02:48:29.606Z,10.80
2023-01-12T02:51:04.515Z,10.80
2023-01-12T02:53:38.510Z,10.80
2023-01-12T02:56:08.624Z,10.80
2023-01-12T02:58:41.381Z,10.80
2023-01-12T03:01:11.788Z,10.80
2023-01-12T03:03:42.714Z,10.80
2023-01-12T03:06:10.923Z,10.80
2023-01-12T03:08:40.519Z,10.80
2023-01-12T03:11:13.684Z,10.80
2023-01-12T03:13:45.408Z,10.80
2023-01-12T03:16:15.452Z,10.90
2023-01-12T03:18:49.769Z,10.80
2023-01-12T03:21:22.641Z,10.80
2023-01-12T03:23:56.564Z,10.80
2023-01-12T03:26:27.815Z,10.70
2023-01-12T03:29:02.213Z,10.70
2023-01-12T03:31:30.718Z,10.60
2023-01-12T03:34:00.519Z,10.50
2023-01-12T03:36:36.462Z,10.50
2023-01-12T03:39:14.667Z,10.50
2023-01-12T03:41:54.447Z,10.40
2023-01-12T03:44:30.515Z,10.40
2023-01-12T03:47:03.925Z,10.40
2023-01-12T03:49:40.751Z,10.40
2023-01-12T03:52:11.113Z,10.30
2023-01-12T03:54:41.679Z,10.30
2023-01-12T03:57:12.041Z,10.30
2023-01-12T03:59:40.221Z,10.40
2023-01-12T04:02:08.285Z,10.40
2023-01-12T04:04:37.661Z,10.40
2023-01-12T04:07:05.898Z,10.40
2023-01-12T04:09:33.977Z,10.30
2023-01-12T04:12:21.743Z,10.30
2023-01-12T04:14:50.106Z,10.30
2023-01-12T04:17:19.072Z,10.30
2023-01-12T04:19:48.713Z,10.30
2023-01-12T04:22:34.750Z,10.30
2023-01-12T04:25:02.827Z,10.30
2023-01-12T04:27:30.907Z,10.30
2023-01-12T04:29:58.952Z,10.30
2023-01-12T04:32:26.992Z,10.40
2023-01-12T04:34:56.383Z,10.40
2023-01-12T04:37:24.594Z,10.40
2023-01-12T04:39:52.586Z,10.30
2023-01-12T04:42:34.497Z,10.30
2023-01-12T04:45:02.561Z,10.40
2023-01-12T04:47:30.552Z,10.40
2023-01-12T04:49:59.991Z,10.40
2023-01-12T04:52:28.039Z,10.40
2023-01-12T04:54:56.953Z,10.40
2023-01-12T04:57:25.246Z,10.50
2023-01-12T04:59:53.270Z,10.40
2023-01-12T05:02:21.570Z,10.40
2023-01-12T05:04:49.936Z,10.30
2023-01-12T05:07:19.485Z,10.30
2023-01-12T05:10:05.625Z,10.30
2023-01-12T05:12:34.487Z,10.30
2023-01-12T05:15:03.685Z,10.30
2023-01-12T05:17:33.094Z,10.20
2023-01-12T05:20:01.406Z,10.30
2023-01-12T05:22:32.317Z,10.30
2023-01-12T05:25:00.332Z,10.30
2023-01-12T05:27:28.386Z,10.20
2023-01-12T05:29:59.447Z,10.20
2023-01-12T05:32:27.439Z,10.20
2023-01-12T05:34:55.428Z,10.20
2023-01-12T05:37:23.405Z,10.20
2023-01-12T05:39:55.600Z,10.10
2023-01-12T05:42:41.114Z,10.10
2023-01-12T05:45:10.629Z,10.10
2023-01-12T05:47:38.929Z,10.10
2023-01-12T05:50:07.628Z,10.10
2023-01-12T05:52:35.627Z,10.10
2023-01-12T05:55:05.825Z,10.10
2023-01-12T05:57:33.892Z,10.10
2023-01-12T06:00:01.859Z,10.00
2023-01-12T06:02:40.324Z,10.00
2023-01-12T06:05:09.579Z,10.00
2023-01-12T06:07:37.911Z,10.00
2023-01-12T06:10:08.548Z,10.00
2023-01-12T06:12:53.880Z,10.00
2023-01-12T06:15:21.895Z,9.90
2023-01-12T06:17:49.922Z,10.00
2023-01-12T06:20:18.067Z,10.00
2023-01-12T06:22:46.235Z,9.90
2023-01-12T06:25:15.831Z,9.90
2023-01-12T06:27:43.795Z,9.90
2023-01-12T06:30:13.003Z,10.00
2023-01-12T06:32:41.551Z,10.00
2023-01-12T06:35:18.540Z,9.90
2023-01-12T06:37:47.700Z,9.90
2023-01-12T06:40:18.011Z,9.90
2023-01-12T06:42:46.020Z,9.90
2023-01-12T06:45:14.022Z,9.90
2023-01-12T06:47:46.748Z,9.90
2023-01-12T06:50:14.756Z,9.90
2023-01-12T06:52:42.811Z,9.90
2023-01-12T06:55:11.119Z,9.90
2023-01-12T06:57:40.489Z,9.90
2023-01-12T07:00:09.785Z,9.90
2023-01-12T07:02:37.783Z,9.90
2023-01-12T07:05:06.416Z,9.90
2023-01-12T07:07:34.519Z,9.90
2023-01-12T07:10:02.606Z,9.90
2023-01-12T07:12:30.673Z,9.90
2023-01-12T07:15:00.078Z,9.90
2023-01-12T07:17:28.503Z,9.90
2023-01-12T07:19:56.481Z,9.90
2023-01-12T07:22:26.406Z,9.90
2023-01-12T07:24:56.473Z,9.80
2023-01-12T07:27:25.552Z,9.80
2023-01-12T07:29:53.630Z,9.90
2023-01-12T07:32:26.760Z,9.90
2023-01-12T07:34:54.784Z,9.90
2023-01-12T07:37:22.722Z,9.90
2023-01-12T07:39:50.699Z,9.90
2023-01-12T07:42:24.555Z,9.90
2023-01-12T07:44:53.620Z,9.90
2023-01-12T07:47:23.061Z,10.00
2023-01-12T07:49:51.146Z,10.00
2023-01-12T07:52:19.143Z,10.10
2023-01-12T07:54:47.168Z,10.10
2023-01-12T07:57:15.129Z,10.10
2023-01-12T07:59:43.274Z,10.10
2023-01-12T08:02:16.343Z,10.10
2023-01-12T08:04:46.185Z,10.20
2023-01-12T08:07:15.020Z,10.20
2023-01-12T08:09:43.207Z,10.30
2023-01-12T08:12:11.300Z,10.30
2023-01-12T08:14:41.360Z,10.40
2023-01-12T08:17:14.175Z,10.40
2023-01-12T08:19:47.186Z,10.50
2023-01-12T08:22:19.886Z,10.50
2023-01-12T08:24:52.636Z,10.60
2023-01-12T08:27:24.995Z,10.60
2023-01-12T08:29:55.838Z,10.70
2023-01-12T08:32:25.326Z,10.70
2023-01-12T08:34:58.712Z,10.70
2023-01-12T08:37:29.347Z,10.80
2023-01-12T08:39:58.101Z,10.80
2023-01-12T08:42:28.404Z,10.80
2023-01-12T08:44:57.424Z,10.80
2023-01-12T08:47:28.246Z,10.90
2023-01-12T08:49:59.172Z,10.90
2023-01-12T08:52:29.384Z,10.90
2023-01-12T08:54:57.547Z,10.90
2023-01-12T08:57:25.608Z,10.90
2023-01-12T08:59:53.712Z,10.90
2023-01-12T09:02:21.926Z,10.90
2023-01-12T09:04:50.035Z,11.00
2023-01-12T09:07:19.905Z,11.00
2023-01-12T09:09:47.993Z,11.10
2023-01-12T09:12:16.567Z,11.10
2023-01-12T09:14:44.595Z,11.10
2023-01-12T09:17:12.632Z,11.10
2023-01-12T09:19:40.716Z,11.10
2023-01-12T09:22:08.735Z,11.20
2023-01-12T09:24:38.235Z,11.20
2023-01-12T09:27:06.219Z,11.20
2023-01-12T09:29:34.353Z,11.20
2023-01-12T09:32:02.438Z,11.20
2023-01-12T09:34:30.695Z,11.30
2023-01-12T09:36:59.682Z,11.30
2023-01-12T09:39:28.843Z,11.30
2023-01-12T09:42:18.072Z,11.30
2023-01-12T09:45:07.309Z,11.40
2023-01-12T09:47:39.637Z,11.40
2023-01-12T09:50:11.497Z,11.30
2023-01-12T09:52:44.732Z,11.40
2023-01-12T09:55:17.601Z,11.40
2023-01-12T09:58:27.210Z,11.40
2023-01-12T10:00:58.341Z,11.40
2023-01-12T10:03:31.256Z,11.50
2023-01-12T10:06:01.436Z,11.50
2023-01-12T10:08:33.527Z,11.50
2023-01-12T10:11:11.424Z,11.50
2023-01-12T10:14:15.962Z,11.50
2023-01-12T10:17:02.182Z,11.50
2023-01-12T10:19:35.814Z,11.60
2023-01-12T10:22:36.917Z,11.60
2023-01-12T10:25:25.488Z,11.60
2023-01-12T10:27:55.684Z,11.60
2023-01-12T10:30:29.628Z,11.60
2023-01-12T10:32:59.515Z,11.60
2023-01-12T10:35:27.708Z,11.70
2023-01-12T10:37:57.343Z,11.70
2023-01-12T10:40:29.689Z,11.70
2023-01-12T10:43:32.276Z,11.70
2023-01-12T10:46:06.063Z,11.70
2023-01-12T10:48:35.750Z,11.80
2023-01-12T10:51:06.291Z,11.80
2023-01-12T10:53:42.389Z,11.90
2023-01-12T10:56:24.294Z,11.90
2023-01-12T10:58:55.437Z,11.90
2023-01-12T11:01:24.257Z,11.90
2023-01-12T11:04:06.709Z,11.90
2023-01-12T11:06:36.561Z,12.00
2023-01-12T11:09:20.417Z,12.00
2023-01-12T11:11:53.686Z,12.00
2023-01-12T11:14:26.888Z,12.00
2023-01-12T11:16:55.023Z,12.00
2023-01-12T11:19:31.589Z,12.00
2023-01-12T11:22:06.755Z,12.00
2023-01-12T11:24:41.390Z,12.00
2023-01-12T11:27:16.426Z,12.10
2023-01-12T11:29:54.515Z,12.10
2023-01-12T11:32:32.051Z,12.20
2023-01-12T11:35:06.540Z,12.20
2023-01-12T11:37:39.297Z,12.20
2023-01-12T11:40:19.398Z,12.30
2023-01-12T11:43:07.472Z,12.20
2023-01-12T11:45:43.348Z,12.20
2023-01-12T11:48:22.719Z,12.20
2023-01-12T11:50:54.493Z,12.30
2023-01-12T11:53:24.415Z,12.30
2023-01-12T11:56:09.537Z,12.30
2023-01-12T11:58:49.347Z,12.30
2023-01-12T12:01:24.410Z,12.30
2023-01-12T12:04:00.356Z,12.40
2023-01-12T12:06:42.565Z,12.30
2023-01-12T12:09:31.828Z,12.40
2023-01-12T12:12:03.306Z,12.40
2023-01-12T12:14:46.484Z,12.30
2023-01-12T12:17:20.581Z,12.40
2023-01-12T12:19:57.309Z,12.30
2023-01-12T12:22:39.943Z,12.30
2023-01-12T12:25:21.994Z,12.30
2023-01-12T12:28:06.461Z,12.30
2023-01-12T12:30:52.524Z,12.30
2023-01-12T12:33:43.411Z,12.30
2023-01-12T12:36:18.863Z,12.20
2023-01-12T12:39:15.597Z,12.30
2023-01-12T12:42:05.772Z,12.30
2023-01-12T12:45:02.648Z,12.20
2023-01-12T12:47:44.111Z,12.20
2023-01-12T12:50:19.072Z,12.20
2023-01-12T12:52:50.709Z,12.20
2023-01-12T12:55:20.276Z,12.20
2023-01-12T12:58:02.219Z,12.10
2023-01-12T13:00:36.480Z,12.20
2023-01-12T13:03:04.783Z,12.10
2023-01-12T13:05:46.955Z,12.10
2023-01-12T13:08:22.271Z,12.10
2023-01-12T13:10:54.592Z,12.10
2023-01-12T13:13:31.998Z,12.10
2023-01-12T13:16:45.833Z,12.10
2023-01-12T13:19:16.825Z,12.10
2023-01-12T13:21:57.882Z,12.10
2023-01-12T13:24:40.452Z,12.00
2023-01-12T13:27:45.734Z,12.10
2023-01-12T13:30:38.617Z,12.10
2023-01-12T13:33:28.488Z,12.10
2023-01-12T13:36:11.428Z,12.00
2023-01-12T13:39:04.930Z,12.10
2023-01-12T13:41:52.696Z,12.10
2023-01-12T13:44:29.686Z,12.10
2023-01-12T13:47:08.248Z,12.10
2023-01-12T13:49:43.450Z,12.10
2023-01-12T13:52:22.284Z,12.10
2023-01-12T13:54:51.320Z,12.10
2023-01-12T13:57:21.423Z,12.20
2023-01-12T14:00:00.232Z,12.20
2023-01-12T14:02:32.527Z,12.20
2023-01-12T14:05:33.599Z,12.20
2023-01-12T14:08:12.648Z,12.20
2023-01-12T14:10:51.202Z,12.20
2023-01-12T14:13:46.475Z,12.30
2023-01-12T14:16:34.926Z,12.40
2023-01-12T14:19:26.347Z,12.30
2023-01-12T14:22:00.088Z,12.30
2023-01-12T14:24:28.242Z,12.30
2023-01-12T14:26:56.289Z,12.30
2023-01-12T14:29:24.754Z,12.30
2023-01-12T14:31:54.702Z,12.30
2023-01-12T14:34:31.844Z,12.30
2023-01-12T14:37:00.527Z,12.30
2023-01-12T14:39:31.782Z,12.20
2023-01-12T14:42:17.598Z,12.20
2023-01-12T14:45:08.459Z,12.20
2023-01-12T14:47:36.989Z,12.20
2023-01-12T14:50:27.645Z,12.10
2023-01-12T14:52:55.757Z,12.10
2023-01-12T14:55:38.332Z,12.10
2023-01-12T14:58:07.315Z,12.10
2023-01-12T15:00:38.209Z,12.00
2023-01-12T15:03:22.728Z,12.00
2023-01-12T15:05:55.999Z,11.90
2023-01-12T15:08:26.988Z,12.00
2023-01-12T15:11:00.184Z,11.90
2023-01-12T15:13:30.655Z,11.90
2023-01-12T15:16:17.906Z,11.90
2023-01-12T15:19:03.852Z,11.90
2023-01-12T15:21:52.721Z,11.90
2023-01-12T15:24:44.133Z,11.90
2023-01-12T15:27:13.546Z,12.00
2023-01-12T15:29:41.841Z,12.00
2023-01-12T15:32:16.811Z,12.10
2023-01-12T15:34:44.939Z,12.10
2023-01-12T15:37:17.091Z,12.10
2023-01-12T15:39:45.163Z,12.10
2023-01-12T15:42:17.186Z,12.00
2023-01-12T15:44:45.929Z,12.00
2023-01-12T15:47:15.142Z,12.00
2023-01-12T15:49:45.951Z,12.10
2023-01-12T15:52:20.984Z,12.10
2023-01-12T15:54:49.123Z,12.10
2023-01-12T15:57:17.609Z,12.10
2023-01-12T15:59:45.941Z,12.10
2023-01-12T16:02:34.357Z,12.20
2023-01-12T16:05:03.103Z,12.30
2023-01-12T16:07:32.572Z,12.20
2023-01-12T16:10:00.761Z,12.20
2023-01-12T16:12:28.839Z,12.20
2023-01-12T16:14:58.611Z,12.10
2023-01-12T16:17:26.820Z,12.10
2023-01-12T16:19:55.013Z,12.10
2023-01-12T16:22:26.599Z,12.20
2023-01-12T16:24:57.352Z,12.10
2023-01-12T16:27:27.687Z,12.10
2023-01-12T16:29:55.991Z,12.10
2023-01-12T16:32:25.019Z,12.20
2023-01-12T16:34:53.574Z,12.10
2023-01-12T16:37:23.230Z,12.10
2023-01-12T16:39:51.456Z,12.10
2023-01-12T16:42:21.058Z,12.20
2023-01-12T16:44:50.597Z,12.20
2023-01-12T16:47:20.696Z,12.10
2023-01-12T16:49:52.550Z,12.10
2023-01-12T16:52:22.524Z,12.10
2023-01-12T16:54:51.076Z,12.10
2023-01-12T16:57:20.609Z,12.10
2023-01-12T16:59:49.588Z,12.10
2023-01-12T17:02:19.999Z,12.10
2023-01-12T17:04:51.924Z,12.10
2023-01-12T17:07:20.631Z,12.10
2023-01-12T17:09:48.874Z,12.10
2023-01-12T17:12:17.403Z,12.10
2023-01-12T17:14:47.356Z,12.10
2023-01-12T17:17:15.656Z,12.10
2023-01-12T17:19:44.852Z,12.10
2023-01-12T17:22:13.485Z,12.10
2023-01-12T17:24:42.759Z,12.00
2023-01-12T17:27:11.525Z,12.10
2023-01-12T17:29:40.137Z,12.10
2023-01-12T17:32:09.676Z,12.10
2023-01-12T17:34:39.491Z,12.10
2023-01-12T17:37:08.733Z,12.10
2023-01-12T17:39:39.630Z,12.10
2023-01-12T17:42:25.376Z,12.10
2023-01-12T17:44:53.445Z,12.10
2023-01-12T17:47:22.907Z,12.10
2023-01-12T17:49:50.962Z,12.10
2023-01-12T17:52:19.077Z,12.20
2023-01-12T17:54:47.688Z,12.20
2023-01-12T17:57:15.989Z,12.20
2023-01-12T17:59:44.638Z,12.20
2023-01-12T18:02:14.339Z,12.20
2023-01-12T18:04:43.919Z,12.20
2023-01-12T18:07:12.034Z,12.20
2023-01-12T18:09:41.947Z,12.10
2023-01-12T18:12:12.219Z,12.10
2023-01-12T18:14:40.507Z,12.10
2023-01-12T18:17:10.939Z,12.20
2023-01-12T18:19:41.472Z,12.10
2023-01-12T18:22:11.676Z,12.10
2023-01-12T18:24:39.807Z,12.00
2023-01-12T18:27:07.945Z,11.90
2023-01-12T18:29:36.545Z,11.90
2023-01-12T18:32:04.651Z,11.90
2023-01-12T18:34:32.690Z,11.90
2023-01-12T18:37:00.799Z,11.90
2023-01-12T18:39:30.223Z,11.90
2023-01-12T18:42:15.637Z,11.80
2023-01-12T18:44:43.837Z,11.80
2023-01-12T18:47:32.981Z,11.80
2023-01-12T18:50:21.102Z,11.80
2023-01-12T18:53:15.223Z,11.80
2023-01-12T18:55:44.827Z,11.80
2023-01-12T18:58:12.926Z,11.80
2023-01-12T19:00:41.109Z,11.80
2023-01-12T19:03:09.325Z,11.80
2023-01-12T19:05:46.239Z,11.80
2023-01-12T19:08:31.708Z,11.80
2023-01-12T19:11:10.737Z,11.80
2023-01-12T19:13:56.699Z,11.80
2023-01-12T19:16:47.899Z,11.80
2023-01-12T19:19:16.301Z,11.90
2023-01-12T19:22:01.948Z,11.90
2023-01-12T19:24:47.519Z,11.90
2023-01-12T19:27:34.810Z,12.00
2023-01-12T19:30:03.079Z,12.00
2023-01-12T19:32:31.297Z,12.00
2023-01-12T19:35:10.187Z,12.00
2023-01-12T19:37:40.012Z,12.00
2023-01-12T19:40:18.751Z,12.00
2023-01-12T19:43:06.131Z,12.00
2023-01-12T19:45:37.390Z,12.00
2023-01-12T19:48:07.372Z,12.00
2023-01-12T19:50:36.417Z,12.00
2023-01-12T19:53:05.803Z,12.00
2023-01-12T19:55:34.700Z,12.00
2023-01-12T19:58:08.645Z,12.00
2023-01-12T20:00:37.958Z,11.90
2023-01-12T20:03:06.145Z,11.90
2023-01-12T20:05:34.255Z,11.90
2023-01-12T20:08:02.393Z,11.90
2023-01-12T20:10:30.587Z,11.80
2023-01-12T20:12:59.047Z,11.80
2023-01-12T20:15:29.734Z,11.80
2023-01-12T20:18:02.043Z,11.80
2023-01-12T20:20:30.933Z,11.90
2023-01-12T20:22:59.317Z,11.80
2023-01-12T20:25:28.297Z,11.80
2023-01-12T20:27:57.671Z,11.90
2023-01-12T20:30:37.328Z,11.80
2023-01-12T20:33:08.037Z,11.80
2023-01-12T20:35:38.347Z,11.80
2023-01-12T20:38:13.502Z,11.80
2023-01-12T20:40:41.671Z,11.90
2023-01-12T20:43:14.301Z,11.90
2023-01-12T20:45:44.218Z,11.90
2023-01-12T20:48:15.441Z,11.90
2023-01-12T20:50:45.470Z,12.00
2023-01-12T20:53:14.522Z,12.00
2023-01-12T20:55:43.952Z,12.00
2023-01-12T20:58:12.073Z,12.10
2023-01-12T21:00:40.362Z,12.00
2023-01-12T21:03:08.873Z,12.00
2023-01-12T21:05:42.027Z,12.00
2023-01-12T21:08:10.341Z,12.10
2023-01-12T21:10:39.521Z,12.00
2023-01-12T21:13:08.661Z,12.00
2023-01-12T21:15:36.704Z,12.10
2023-01-12T21:18:04.949Z,12.10
2023-01-12T21:20:33.030Z,12.20
2023-01-12T21:23:02.406Z,12.20
2023-01-12T21:25:30.425Z,12.20
2023-01-12T21:27:58.429Z,12.20
2023-01-12T21:30:26.472Z,12.20
2023-01-12T21:32:56.599Z,12.20
2023-01-12T21:35:25.314Z,12.10
2023-01-12T21:37:53.354Z,12.10
2023-01-12T21:40:22.983Z,12.10
2023-01-12T21:43:09.281Z,12.20
2023-01-12T21:45:38.318Z,12.20
2023-01-12T21:48:07.028Z,12.40
2023-01-12T21:50:36.191Z,12.40
2023-01-12T21:53:05.469Z,12.30
2023-01-12T21:55:35.066Z,12.20
2023-01-12T21:58:04.163Z,12.20
2023-01-12T22:00:32.414Z,12.20
2023-01-12T22:03:00.668Z,12.20
2023-01-12T22:05:28.805Z,12.20
2023-01-12T22:07:57.799Z,12.10
2023-01-12T22:10:31.393Z,12.20
2023-01-12T22:13:02.740Z,12.10
2023-01-12T22:15:31.407Z,12.10
2023-01-12T22:18:00.267Z,12.00
2023-01-12T22:20:28.733Z,12.00
2023-01-12T22:22:56.769Z,12.00
2023-01-12T22:25:24.903Z,12.00
2023-01-12T22:27:53.258Z,11.90
2023-01-12T22:30:25.082Z,11.90
2023-01-12T22:32:55.261Z,11.90
2023-01-12T22:35:25.761Z,11.90
2023-01-12T22:37:54.661Z,11.90
2023-01-12T22:40:23.114Z,11.90
2023-01-12T22:43:08.673Z,11.90
2023-01-12T22:45:38.306Z,11.90
2023-01-12T22:48:07.156Z,11.90
2023-01-12T22:50:35.174Z,11.90
2023-01-12T22:53:03.219Z,11.90
2023-01-12T22:55:31.253Z,12.00
2023-01-12T22:57:59.327Z,11.90
2023-01-12T23:00:27.400Z,12.00
2023-01-12T23:03:02.976Z,12.00
2023-01-12T23:05:35.793Z,12.00
2023-01-12T23:08:05.580Z,12.00
2023-01-12T23:10:33.889Z,11.90
2023-01-12T23:13:19.036Z,11.90
2023-01-12T23:15:49.823Z,11.90
2023-01-12T23:18:21.545Z,12.00
2023-01-12T23:20:50.200Z,12.00
2023-01-12T23:23:18.534Z,12.00
2023-01-12T23:25:47.604Z,12.00
2023-01-12T23:28:16.806Z,12.00
2023-01-12T23:30:45.214Z,12.00
2023-01-12T23:33:13.279Z,12.00
2023-01-12T23:35:43.710Z,12.00
2023-01-12T23:38:16.239Z,12.00
2023-01-12T23:40:44.539Z,12.00
2023-01-12T23:43:12.817Z,12.00
2023-01-12T23:45:40.817Z,12.00
2023-01-12T23:48:08.861Z,12.00
2023-01-12T23:50:36.957Z,12.10
2023-01-12T23:53:06.539Z,12.10
2023-01-12T23:55:34.558Z,12.10
2023-01-12T23:58:03.261Z,12.20
